createdAt,value
2023-02-12T00:01:01.525Z,37.15
2023-02-12T00:03:27.942Z,36.20
2023-02-12T00:05:54.622Z,33.00
2023-02-12T00:08:21.168Z,30.73
2023-02-12T00:10:47.559Z,36.70
2023-02-12T00:13:15.005Z,33.03
2023-02-12T00:15:42.554Z,30.55
2023-02-12T00:18:09.058Z,35.58
2023-02-12T00:20:37.127Z,39.13
2023-02-12T00:23:04.300Z,35.13
2023-02-12T00:25:30.691Z,37.20
2023-02-12T00:27:57.608Z,34.72
2023-02-12T00:30:24.003Z,33.42
2023-02-12T00:32:50.360Z,29.23
2023-02-12T00:35:16.746Z,38.47
2023-02-12T00:37:43.123Z,42.17
2023-02-12T00:40:10.532Z,39.38
2023-02-12T00:42:36.896Z,33.00
2023-02-12T00:45:03.401Z,35.53
2023-02-12T00:47:29.745Z,32.75
2023-02-12T00:49:56.082Z,35.33
2023-02-12T00:52:22.457Z,29.65
2023-02-12T00:54:48.899Z,36.97
2023-02-12T00:57:15.295Z,39.58
2023-02-12T00:59:42.784Z,31.15
2023-02-12T01:02:09.411Z,33.38
2023-02-12T01:04:35.819Z,33.13
2023-02-12T01:07:02.293Z,36.00
2023-02-12T01:09:28.832Z,31.17
2023-02-12T01:11:55.542Z,28.75
2023-02-12T01:14:22.103Z,30.67
2023-02-12T01:16:48.483Z,33.20
2023-02-12T01:19:14.835Z,35.13
2023-02-12T01:21:42.615Z,32.45
2023-02-12T01:24:11.541Z,32.28
2023-02-12T01:26:37.895Z,28.08
2023-02-12T01:29:09.565Z,29.27
2023-02-12T01:31:38.178Z,33.03
2023-02-12T01:34:06.333Z,28.77
2023-02-12T01:36:32.978Z,35.05
2023-02-12T01:38:59.695Z,33.17
2023-02-12T01:41:31.960Z,30.20
2023-02-12T01:44:20.864Z,30.15
2023-02-12T01:46:49.444Z,29.75
2023-02-12T01:49:19.704Z,32.38
2023-02-12T01:51:46.901Z,32.65
2023-02-12T01:54:18.567Z,32.00
2023-02-12T01:56:45.042Z,29.77
2023-02-12T01:59:11.711Z,31.27
2023-02-12T02:01:38.286Z,29.40
2023-02-12T02:04:14.924Z,33.65
2023-02-12T02:06:50.940Z,34.17
2023-02-12T02:09:18.707Z,29.83
2023-02-12T02:12:03.928Z,29.88
2023-02-12T02:14:33.007Z,33.55
2023-02-12T02:17:11.278Z,31.45
2023-02-12T02:19:56.481Z,29.30
2023-02-12T02:23:20.588Z,39.40
2023-02-12T02:25:56.522Z,28.95
2023-02-12T02:28:32.793Z,37.13
2023-02-12T02:31:18.433Z,34.13
2023-02-12T02:34:04.076Z,36.50
2023-02-12T02:36:47.893Z,32.47
2023-02-12T02:39:43.247Z,28.83
2023-02-12T02:42:26.863Z,37.63
2023-02-12T02:44:55.732Z,30.70
2023-02-12T02:47:26.616Z,29.75
2023-02-12T02:50:00.045Z,29.13
2023-02-12T02:52:35.911Z,30.20
2023-02-12T02:55:11.113Z,29.73
2023-02-12T02:57:56.777Z,30.48
2023-02-12T03:00:36.538Z,28.73
2023-02-12T03:03:10.144Z,26.05
2023-02-12T03:05:43.632Z,35.50
2023-02-12T03:08:34.205Z,32.72
2023-02-12T03:11:06.597Z,34.92
2023-02-12T03:13:37.956Z,30.60
2023-02-12T03:16:26.465Z,28.80
2023-02-12T03:19:11.722Z,33.47
2023-02-12T03:21:46.435Z,32.10
2023-02-12T03:24:39.336Z,30.48
2023-02-12T03:27:26.704Z,26.23
2023-02-12T03:29:53.181Z,26.83
2023-02-12T03:32:40.935Z,30.52
2023-02-12T03:35:17.306Z,26.90
2023-02-12T03:37:55.954Z,31.35
2023-02-12T03:40:29.144Z,28.08
2023-02-12T03:43:03.222Z,28.77
2023-02-12T03:48:30.509Z,27.67
2023-02-12T03:51:04.506Z,27.08
2023-02-12T03:56:04.746Z,27.42
2023-02-12T03:58:34.146Z,28.27
2023-02-12T04:01:01.405Z,27.92
2023-02-12T04:03:29.498Z,27.48
2023-02-12T04:05:56.160Z,29.25
2023-02-12T04:08:23.805Z,29.70
2023-02-12T04:11:11.749Z,26.63
2023-02-12T04:14:05.221Z,29.38
2023-02-12T04:16:40.672Z,26.70
2023-02-12T04:19:10.003Z,26.98
2023-02-12T04:22:04.337Z,30.92
2023-02-12T04:24:49.136Z,30.45
2023-02-12T04:27:22.532Z,30.80
2023-02-12T04:29:56.048Z,30.23
2023-02-12T04:32:33.545Z,31.27
2023-02-12T04:35:08.430Z,28.55
2023-02-12T04:37:48.323Z,27.80
2023-02-12T04:40:17.644Z,30.52
2023-02-12T04:42:48.438Z,30.25
2023-02-12T04:45:24.825Z,33.72
2023-02-12T04:47:51.560Z,28.05
2023-02-12T04:50:18.785Z,31.25
2023-02-12T04:52:45.250Z,31.13
2023-02-12T04:55:12.152Z,30.67
2023-02-12T04:57:39.835Z,37.08
2023-02-12T05:00:07.451Z,35.72
2023-02-12T05:02:34.649Z,34.63
2023-02-12T05:05:01.305Z,32.80
2023-02-12T05:07:27.828Z,31.98
2023-02-12T05:09:54.693Z,32.40
2023-02-12T05:12:21.171Z,28.00
2023-02-12T05:14:47.514Z,28.58
2023-02-12T05:17:13.852Z,28.50
2023-02-12T05:19:40.229Z,36.83
2023-02-12T05:22:06.756Z,30.70
2023-02-12T05:24:33.163Z,30.40
2023-02-12T05:27:02.996Z,28.95
2023-02-12T05:29:29.358Z,27.63
2023-02-12T05:31:55.842Z,26.73
2023-02-12T05:34:22.197Z,32.17
2023-02-12T05:36:48.584Z,29.30
2023-02-12T05:39:14.969Z,28.00
2023-02-12T05:41:41.380Z,30.77
2023-02-12T05:44:07.902Z,31.17
2023-02-12T05:46:34.387Z,26.90
2023-02-12T05:49:00.806Z,32.00
2023-02-12T05:51:27.776Z,28.70
2023-02-12T05:54:01.615Z,30.55
2023-02-12T05:56:30.321Z,28.42
2023-02-12T05:59:03.250Z,30.00
2023-02-12T06:01:33.089Z,30.20
2023-02-12T06:04:00.681Z,28.45
2023-02-12T06:06:28.757Z,33.10
2023-02-12T06:08:55.195Z,29.30
2023-02-12T06:11:21.641Z,30.05
2023-02-12T06:13:48.324Z,17.40
2023-02-12T06:16:23.096Z,41.80
2023-02-12T06:18:50.172Z,42.53
2023-02-12T06:21:18.048Z,38.55
2023-02-12T06:23:44.440Z,31.85
2023-02-12T06:26:10.797Z,30.88
2023-02-12T06:28:37.318Z,29.20
2023-02-12T06:31:04.056Z,30.33
2023-02-12T06:33:30.511Z,30.73
2023-02-12T06:35:57.327Z,31.25
2023-02-12T06:38:23.981Z,26.77
2023-02-12T06:40:50.302Z,24.90
2023-02-12T06:43:16.694Z,29.90
2023-02-12T06:45:43.028Z,34.80
2023-02-12T06:48:09.427Z,32.35
2023-02-12T06:50:35.857Z,31.38
2023-02-12T06:53:02.256Z,32.88
2023-02-12T06:55:28.638Z,35.42
2023-02-12T06:57:55.349Z,34.50
2023-02-12T07:00:22.081Z,33.60
2023-02-12T07:02:57.429Z,31.60
2023-02-12T07:05:23.931Z,35.05
2023-02-12T07:07:50.345Z,32.25
2023-02-12T07:10:17.585Z,35.28
2023-02-12T07:12:43.977Z,35.50
2023-02-12T07:15:10.387Z,33.65
2023-02-12T07:17:36.696Z,32.85
2023-02-12T07:20:04.365Z,37.67
2023-02-12T07:22:30.731Z,35.25
2023-02-12T07:24:57.202Z,35.35
2023-02-12T07:27:23.566Z,39.20
2023-02-12T07:29:49.876Z,34.22
2023-02-12T07:32:16.295Z,39.10
2023-02-12T07:34:42.759Z,35.95
2023-02-12T07:37:09.128Z,33.88
2023-02-12T07:39:35.507Z,35.97
2023-02-12T07:42:01.893Z,38.25
2023-02-12T07:44:28.277Z,34.47
2023-02-12T07:46:54.599Z,33.67
2023-02-12T07:49:21.998Z,30.23
2023-02-12T07:51:49.582Z,29.38
2023-02-12T07:54:16.493Z,33.00
2023-02-12T07:56:46.609Z,34.95
2023-02-12T07:59:15.222Z,35.58
2023-02-12T08:01:51.898Z,31.15
2023-02-12T08:04:21.353Z,37.95
2023-02-12T08:06:49.714Z,37.55
2023-02-12T08:09:18.912Z,36.55
2023-02-12T08:11:45.637Z,41.97
2023-02-12T08:14:14.108Z,38.75
2023-02-12T08:16:41.573Z,49.28
2023-02-12T08:19:17.923Z,42.25
2023-02-12T08:21:50.389Z,47.35
2023-02-12T08:24:16.742Z,45.97
2023-02-12T08:26:43.138Z,47.63
2023-02-12T08:29:12.671Z,47.67
2023-02-12T08:31:41.685Z,48.40
2023-02-12T08:34:16.670Z,49.70
2023-02-12T08:36:44.151Z,50.38
2023-02-12T08:39:10.732Z,46.85
2023-02-12T08:41:37.332Z,52.58
2023-02-12T08:44:04.878Z,58.30
2023-02-12T08:46:36.884Z,55.80
2023-02-12T08:49:05.965Z,59.67
2023-02-12T08:51:34.128Z,56.17
2023-02-12T08:54:02.716Z,57.20
2023-02-12T08:56:30.000Z,55.78
2023-02-12T08:59:01.000Z,57.42
2023-02-12T09:01:29.440Z,56.15
2023-02-12T09:03:56.347Z,63.65
2023-02-12T09:06:23.911Z,50.25
2023-02-12T09:08:50.744Z,54.60
2023-02-12T09:11:30.344Z,51.53
2023-02-12T09:13:59.566Z,54.10
2023-02-12T09:16:27.348Z,57.35
2023-02-12T09:18:54.871Z,56.92
2023-02-12T09:21:21.905Z,52.25
2023-02-12T09:23:48.813Z,60.35
2023-02-12T09:26:20.601Z,55.05
2023-02-12T09:28:48.476Z,58.95
2023-02-12T09:31:28.680Z,58.83
2023-02-12T09:33:58.205Z,58.65
2023-02-12T09:36:25.081Z,64.22
2023-02-12T09:38:51.460Z,59.13
2023-02-12T09:42:00.272Z,55.85
2023-02-12T09:44:35.395Z,57.60
2023-02-12T09:47:05.801Z,56.13
2023-02-12T09:50:01.927Z,57.65
2023-02-12T09:52:29.004Z,58.53
2023-02-12T09:54:56.312Z,57.53
2023-02-12T09:57:22.619Z,62.92
2023-02-12T09:59:54.822Z,66.93
2023-02-12T10:02:22.058Z,68.30
2023-02-12T10:05:00.595Z,65.72
2023-02-12T10:07:43.075Z,67.57
2023-02-12T10:10:20.393Z,65.35
2023-02-12T10:13:00.186Z,66.43
2023-02-12T10:15:29.218Z,68.25
2023-02-12T10:18:03.355Z,69.82
2023-02-12T10:23:23.884Z,68.88
2023-02-12T10:25:56.539Z,67.43
2023-02-12T10:28:39.158Z,64.60
2023-02-12T10:31:15.464Z,64.55
2023-02-12T10:33:48.797Z,68.72
2023-02-12T10:36:27.022Z,64.67
2023-02-12T10:39:00.124Z,65.50
2023-02-12T10:41:28.769Z,64.82
2023-02-12T10:43:55.192Z,71.13
2023-02-12T10:46:21.589Z,61.28
2023-02-12T10:48:50.020Z,67.75
2023-02-12T10:51:25.618Z,68.45
2023-02-12T10:53:51.971Z,59.67
2023-02-12T10:56:21.170Z,64.65
2023-02-12T10:58:50.266Z,62.60
2023-02-12T11:01:21.799Z,66.13
2023-02-12T11:03:48.576Z,67.00
2023-02-12T11:06:21.087Z,64.00
2023-02-12T11:08:48.259Z,57.53
2023-02-12T11:11:16.187Z,58.78
2023-02-12T11:14:07.186Z,60.85
2023-02-12T11:16:38.678Z,58.10
2023-02-12T11:19:07.208Z,52.05
2023-02-12T11:21:34.941Z,50.80
2023-02-12T11:24:25.971Z,54.75
2023-02-12T11:26:52.371Z,52.80
2023-02-12T11:29:24.396Z,47.67
2023-02-12T11:32:02.377Z,52.28
2023-02-12T11:34:29.731Z,53.22
2023-02-12T11:36:56.751Z,50.78
2023-02-12T11:39:32.363Z,53.85
2023-02-12T11:42:05.499Z,54.17
2023-02-12T11:44:37.470Z,52.47
2023-02-12T11:47:17.180Z,48.72
2023-02-12T11:49:55.766Z,53.05
2023-02-12T11:52:26.792Z,48.67
2023-02-12T11:54:57.548Z,48.38
2023-02-12T11:57:40.112Z,44.95
2023-02-12T12:00:38.208Z,47.70
2023-02-12T12:03:14.826Z,47.75
2023-02-12T12:05:51.067Z,48.83
2023-02-12T12:08:29.884Z,52.17
2023-02-12T12:11:00.767Z,48.05
2023-02-12T12:13:35.307Z,47.47
2023-02-12T12:16:29.220Z,47.65
2023-02-12T12:19:19.736Z,49.53
2023-02-12T12:21:57.802Z,49.53
2023-02-12T12:24:35.165Z,45.05
2023-02-12T12:27:39.358Z,46.22
2023-02-12T12:30:16.593Z,47.40
2023-02-12T12:32:45.803Z,49.28
2023-02-12T12:35:14.825Z,47.97
2023-02-12T12:38:02.337Z,43.55
2023-02-12T12:40:54.982Z,43.63
2023-02-12T12:43:31.049Z,44.60
2023-02-12T12:46:18.698Z,44.83
2023-02-12T12:48:56.948Z,41.28
2023-02-12T12:51:53.592Z,47.13
2023-02-12T12:54:44.840Z,43.08
2023-02-12T12:57:18.524Z,47.35
2023-02-12T13:00:00.197Z,46.20
2023-02-12T13:03:01.922Z,42.30
2023-02-12T13:05:52.523Z,44.28
2023-02-12T13:08:46.078Z,39.72
2023-02-12T13:11:39.641Z,43.53
2023-02-12T13:14:24.627Z,44.65
2023-02-12T13:17:29.645Z,45.55
2023-02-12T13:20:18.557Z,45.08
2023-02-12T13:23:05.989Z,40.13
2023-02-12T13:25:42.613Z,40.22
2023-02-12T13:28:21.250Z,35.60
2023-02-12T13:30:50.445Z,20.55
2023-02-12T13:33:28.612Z,3.10
2023-02-12T13:35:59.353Z,23.83
2023-02-12T13:38:33.371Z,32.80
2023-02-12T13:41:07.306Z,21.67
2023-02-12T13:43:44.265Z,20.95
2023-02-12T13:46:25.209Z,26.60
2023-02-12T13:49:00.552Z,6.75
2023-02-12T13:51:40.396Z,15.85
2023-02-12T13:54:25.423Z,11.05
2023-02-12T13:56:54.061Z,10.10
2023-02-12T13:59:32.342Z,19.42
2023-02-12T14:02:25.117Z,27.92
2023-02-12T14:05:01.881Z,24.65
2023-02-12T14:07:42.770Z,7.93
2023-02-12T14:10:45.412Z,25.88
2023-02-12T14:13:18.223Z,22.00
2023-02-12T14:15:48.653Z,18.42
2023-02-12T14:22:23.357Z,19.80
2023-02-12T14:24:54.929Z,18.75
2023-02-12T14:27:41.430Z,21.05
2023-02-12T14:30:07.696Z,20.00
2023-02-12T14:32:46.138Z,16.17
2023-02-12T14:35:31.978Z,21.00
2023-02-12T14:38:16.296Z,23.30
2023-02-12T14:40:47.110Z,20.48
2023-02-12T14:43:32.912Z,21.40
2023-02-12T14:46:22.017Z,19.98
2023-02-12T14:48:55.061Z,17.05
2023-02-12T14:51:43.623Z,18.90
2023-02-12T14:54:30.172Z,20.08
2023-02-12T14:57:01.404Z,18.52
2023-02-12T14:59:28.190Z,20.05
2023-02-12T15:01:55.405Z,17.52
2023-02-12T15:04:27.508Z,17.77
2023-02-12T15:06:58.719Z,17.77
2023-02-12T15:09:36.333Z,21.40
2023-02-12T15:12:07.753Z,20.88
2023-02-12T15:14:40.329Z,21.20
2023-02-12T15:17:25.221Z,24.60
2023-02-12T15:19:57.329Z,21.90
2023-02-12T15:22:31.226Z,19.98
2023-02-12T15:25:29.276Z,20.95
2023-02-12T15:28:00.987Z,20.50
2023-02-12T15:30:30.620Z,19.77
2023-02-12T15:32:58.663Z,22.83
2023-02-12T15:35:28.193Z,18.17
2023-02-12T15:37:55.741Z,19.15
2023-02-12T15:40:22.581Z,18.33
2023-02-12T15:43:03.968Z,16.48
2023-02-12T15:45:32.547Z,17.45
2023-02-12T15:48:11.794Z,18.73
2023-02-12T15:50:56.176Z,18.17
2023-02-12T15:55:51.186Z,17.02
2023-02-12T15:58:23.804Z,16.55
2023-02-12T16:00:50.722Z,13.60
2023-02-12T16:03:22.223Z,16.05
2023-02-12T16:05:49.710Z,14.45
2023-02-12T16:08:17.314Z,15.65
2023-02-12T16:10:45.856Z,19.02
2023-02-12T16:13:17.074Z,19.08
2023-02-12T16:15:43.806Z,18.13
2023-02-12T16:18:24.624Z,17.95
2023-02-12T16:21:05.383Z,17.83
2023-02-12T16:23:31.819Z,19.38
2023-02-12T16:25:58.930Z,22.25
2023-02-12T16:28:29.755Z,20.98
2023-02-12T16:31:13.268Z,19.55
2023-02-12T16:33:39.585Z,19.83
2023-02-12T16:36:22.398Z,25.25
2023-02-12T16:38:56.696Z,21.63
2023-02-12T16:41:33.113Z,19.65
2023-02-12T16:43:59.329Z,24.90
2023-02-12T16:46:26.240Z,24.17
2023-02-12T16:48:53.587Z,27.23
2023-02-12T16:51:34.843Z,22.13
2023-02-12T16:54:03.249Z,25.15
2023-02-12T16:56:37.755Z,22.13
2023-02-12T16:59:04.880Z,22.90
2023-02-12T17:01:34.439Z,25.20
2023-02-12T17:04:06.541Z,23.30
2023-02-12T17:06:33.312Z,22.23
2023-02-12T17:09:00.016Z,18.98
2023-02-12T17:11:27.675Z,20.02
2023-02-12T17:13:55.001Z,18.60
2023-02-12T17:16:30.444Z,18.85
2023-02-12T17:18:58.328Z,17.55
2023-02-12T17:21:30.620Z,18.15
2023-02-12T17:23:57.267Z,17.05
2023-02-12T17:26:24.461Z,18.33
2023-02-12T17:28:50.808Z,18.92
2023-02-12T17:31:17.549Z,19.45
2023-02-12T17:33:44.356Z,18.25
2023-02-12T17:36:11.857Z,18.90
2023-02-12T17:38:38.208Z,18.92
2023-02-12T17:41:10.878Z,19.23
2023-02-12T17:43:37.296Z,17.52
2023-02-12T17:46:28.893Z,20.45
2023-02-12T17:48:56.253Z,20.30
2023-02-12T17:51:22.721Z,20.48
2023-02-12T17:53:49.148Z,17.17
2023-02-12T17:56:18.898Z,20.00
2023-02-12T17:58:46.108Z,18.10
2023-02-12T18:01:14.919Z,20.63
2023-02-12T18:03:41.321Z,16.58
2023-02-12T18:06:08.112Z,18.80
2023-02-12T18:08:34.772Z,19.80
2023-02-12T18:11:05.729Z,17.08
2023-02-12T18:13:32.106Z,16.45
2023-02-12T18:15:58.490Z,18.42
2023-02-12T18:18:24.853Z,16.65
2023-02-12T18:20:51.205Z,17.45
2023-02-12T18:23:17.621Z,17.52
2023-02-12T18:25:44.343Z,17.10
2023-02-12T18:28:11.380Z,16.13
2023-02-12T18:30:39.151Z,14.93
2023-02-12T18:33:06.035Z,20.00
2023-02-12T18:35:33.203Z,17.73
2023-02-12T18:37:59.631Z,18.30
2023-02-12T18:40:25.969Z,16.98
2023-02-12T18:42:52.457Z,15.75
2023-02-12T18:45:19.345Z,20.63
2023-02-12T18:47:45.710Z,19.63
2023-02-12T18:50:12.092Z,17.38
2023-02-12T18:52:38.461Z,19.02
2023-02-12T18:55:06.185Z,16.90
2023-02-12T18:57:32.569Z,19.02
2023-02-12T18:59:58.995Z,18.98
2023-02-12T19:02:25.400Z,21.17
2023-02-12T19:04:51.771Z,17.17
2023-02-12T19:07:18.177Z,18.65
2023-02-12T19:09:44.753Z,19.27
2023-02-12T19:12:11.182Z,18.30
2023-02-12T19:14:37.508Z,18.05
2023-02-12T19:17:03.860Z,17.95
2023-02-12T19:19:30.295Z,18.90
2023-02-12T19:21:56.678Z,18.35
2023-02-12T19:24:23.040Z,17.73
2023-02-12T19:26:51.860Z,17.08
2023-02-12T19:29:18.375Z,17.08
2023-02-12T19:31:46.255Z,16.25
2023-02-12T19:34:20.160Z,18.60
2023-02-12T19:36:47.216Z,15.25
2023-02-12T19:39:15.906Z,17.92
2023-02-12T19:41:42.401Z,15.35
2023-02-12T19:44:11.603Z,15.77
2023-02-12T19:46:40.335Z,15.63
2023-02-12T19:49:07.893Z,15.52
2023-02-12T19:51:34.562Z,14.02
2023-02-12T19:54:02.696Z,14.93
2023-02-12T19:56:30.882Z,18.25
2023-02-12T19:58:58.021Z,14.43
2023-02-12T20:01:26.472Z,14.18
2023-02-12T20:03:53.273Z,14.45
2023-02-12T20:06:22.022Z,14.32
2023-02-12T20:08:49.070Z,12.80
2023-02-12T20:11:18.822Z,14.55
2023-02-12T20:13:45.815Z,14.98
2023-02-12T20:16:17.991Z,12.48
2023-02-12T20:18:46.283Z,11.82
2023-02-12T20:21:18.315Z,12.35
2023-02-12T20:23:44.711Z,12.07
2023-02-12T20:26:14.203Z,12.73
2023-02-12T20:28:41.541Z,12.73
2023-02-12T20:31:18.659Z,12.27
2023-02-12T20:33:45.658Z,12.63
2023-02-12T20:36:12.727Z,11.13
2023-02-12T20:38:43.352Z,14.15
2023-02-12T20:41:10.716Z,12.73
2023-02-12T20:43:38.276Z,14.35
2023-02-12T20:46:13.743Z,10.88
2023-02-12T20:48:40.540Z,12.30
2023-02-12T20:51:10.590Z,14.15
2023-02-12T20:53:37.020Z,14.85
2023-02-12T20:56:07.849Z,12.70
2023-02-12T20:58:34.395Z,11.73
2023-02-12T21:01:09.202Z,12.30
2023-02-12T21:03:36.314Z,12.88
2023-02-12T21:06:03.537Z,12.02
2023-02-12T21:08:30.234Z,12.15
2023-02-12T21:11:07.928Z,12.98
2023-02-12T21:13:34.292Z,12.80
2023-02-12T21:16:05.499Z,13.80
2023-02-12T21:18:31.933Z,13.60
2023-02-12T21:21:08.902Z,14.60
2023-02-12T21:23:35.655Z,14.68
2023-02-12T21:26:06.898Z,11.50
2023-02-12T21:28:34.072Z,12.23
2023-02-12T21:31:18.553Z,11.50
2023-02-12T21:33:46.260Z,13.50
2023-02-12T21:36:16.543Z,13.63
2023-02-12T21:38:44.438Z,13.75
2023-02-12T21:41:14.675Z,11.82
2023-02-12T21:43:43.005Z,16.13
2023-02-12T21:46:10.254Z,14.23
2023-02-12T21:48:39.020Z,11.80
2023-02-12T21:51:05.483Z,12.30
2023-02-12T21:53:31.852Z,13.40
2023-02-12T21:56:04.790Z,13.98
2023-02-12T21:58:31.176Z,15.35
2023-02-12T22:01:06.193Z,13.38
2023-02-12T22:03:32.548Z,15.10
2023-02-12T22:06:03.818Z,13.70
2023-02-12T22:08:30.249Z,15.02
2023-02-12T22:10:56.832Z,14.18
2023-02-12T22:13:23.455Z,15.27
2023-02-12T22:15:49.903Z,13.82
2023-02-12T22:18:16.327Z,15.25
2023-02-12T22:20:42.959Z,14.93
2023-02-12T22:23:10.388Z,16.08
2023-02-12T22:25:36.881Z,14.43
2023-02-12T22:28:03.276Z,13.65
2023-02-12T22:30:29.626Z,15.02
2023-02-12T22:32:57.940Z,14.40
2023-02-12T22:35:24.261Z,16.40
2023-02-12T22:37:50.580Z,17.38
2023-02-12T22:40:17.275Z,13.30
2023-02-12T22:42:43.593Z,13.93
2023-02-12T22:45:11.905Z,15.50
2023-02-12T22:47:38.288Z,15.80
2023-02-12T22:50:05.131Z,14.57
2023-02-12T22:52:31.994Z,15.05
2023-02-12T22:54:58.313Z,13.07
2023-02-12T22:57:24.647Z,13.48
2023-02-12T22:59:51.001Z,14.65
2023-02-12T23:02:17.944Z,16.77
2023-02-12T23:04:44.415Z,13.80
2023-02-12T23:07:10.783Z,14.88
2023-02-12T23:09:37.188Z,13.88
2023-02-12T23:12:07.380Z,15.43
2023-02-12T23:14:35.936Z,15.15
2023-02-12T23:17:05.223Z,13.05
2023-02-12T23:19:31.786Z,14.05
2023-02-12T23:21:58.509Z,15.60
2023-02-12T23:24:25.757Z,15.77
2023-02-12T23:26:53.328Z,13.65
2023-02-12T23:29:19.908Z,12.77
2023-02-12T23:31:46.345Z,14.20
2023-02-12T23:34:12.788Z,12.30
2023-02-12T23:36:39.188Z,14.85
2023-02-12T23:39:05.817Z,12.25
2023-02-12T23:41:32.250Z,15.30
2023-02-12T23:43:58.670Z,14.35
2023-02-12T23:46:25.055Z,13.55
2023-02-12T23:48:51.417Z,13.20
2023-02-12T23:51:17.727Z,12.05
2023-02-12T23:53:44.113Z,12.88
2023-02-12T23:56:10.580Z,11.88
2023-02-12T23:58:37.030Z,13.40
